Rostein — LLHI — position and weather

sailwx.info

Track history (hours):
 
Tides and Currents Weather Stations Pressure Air Temp Water Temp Dewpoint Dewpoint Depression Visibility Wind Speed Wind Dir Waves Ship Positions

Rostein

Last reported at 2014-Jul-14 04:31 UTC. Time now 2014-Jul-23 11:58 UTC.
Position N 69°27' E 033°14'.
Warning: this ship's position is 9 days out of date.

Length 57 m; draft 5 m.

Type: Ship. MMSI: 257210000.

Date/timePositionNaut miles runAvg speedWind from/ knotsBaromVisibWave heightAir tempDewpointWater temp
2014-Jul-14 04:31N 69°27' E 033°14'  
2014-Jul-10 02:15N 69°42' E 019°03'3 4.1
2014-Jul-10 01:33N 69°40' E 018°58'0 0.0
2014-Jul-10 00:33N 69°40' E 018°58'0 0.0
2014-Jul-09 23:33N 69°40' E 018°58'0 0.2
2014-Jul-09 22:33N 69°39' E 018°59'242 8.6
2014-Jul-08 18:19N 66°37' E 011°51'  
2014-Jul-06 00:23N 66°22' E 011°41'7 8.1
2014-Jul-05 23:33N 66°28' E 011°48'8 8.2
2014-Jul-05 22:33N 66°36' E 011°57'240 8.3
2014-Jul-04 17:33N 69°38' E 018°57'  
Track history (hours):
 
Tides and Currents Weather Stations Pressure Air Temp Water Temp Dewpoint Dewpoint Depression Visibility Wind Speed Wind Dir Waves Ship Positions

Rostein

Last reported at 2014-Jul-14 04:31 UTC. Time now 2014-Jul-23 11:58 UTC.
Position N 69°27' E 033°14'.
Warning: this ship's position is 9 days out of date.

Length 57 m; draft 5 m.

Type: Ship. MMSI: 257210000.

Date/timePositionNaut miles runAvg speedWind from/ knotsBaromVisibWave heightAir tempDewpointWater temp
2014-Jul-14 04:31N 69°27' E 033°14'  
2014-Jul-10 02:15N 69°42' E 019°03'3 4.1
2014-Jul-10 01:33N 69°40' E 018°58'0 0.0
2014-Jul-10 00:33N 69°40' E 018°58'0 0.0
2014-Jul-09 23:33N 69°40' E 018°58'0 0.2
2014-Jul-09 22:33N 69°39' E 018°59'242 8.6
2014-Jul-08 18:19N 66°37' E 011°51'  
2014-Jul-06 00:23N 66°22' E 011°41'7 8.1
2014-Jul-05 23:33N 66°28' E 011°48'8 8.2
2014-Jul-05 22:33N 66°36' E 011°57'240 8.3
2014-Jul-04 17:33N 69°38' E 018°57'  

Dump ship's entire track history